DLH030 LSZH-LDSP
Flight info
| Callsign | DLH030 |
|---|---|
| Flight time | N/A |
| Altitude | 31000 |
| Route | LSZH/28 DEGE2X DEGES Z2 XEBIX L607 ELMEM N606 GIRIS DCT NIVAS DCT PEVAL DCT SAL SAL1Z LDSP/KEMIX I05Z |
| Aircraft | B736/M-SDE2E3FGHIRWXY/LB1 |
Departure
| Time | N/A |
|---|---|
| Airport | Zürich Airport (LSZH) |
Arrival
| Time | 2026-04-30 14:18 |
|---|---|
| Airport | Split Saint Jerome Airport (LDSP) |
| Time | Latitude | Longitude | Altitude | Speed | Heading |
|---|---|---|---|---|---|
| 2026-04-30 13:26 | 47.08917 | 10.70691 | 31206 ft | 494 kts | 155° |
| 2026-04-30 13:26 | 47.02438 | 10.74100 | 31256 ft | 496 kts | 154° |
| 2026-04-30 13:28 | 46.92740 | 10.79599 | 31229 ft | 494 kts | 153° |
| 2026-04-30 13:28 | 46.83140 | 10.85053 | 31236 ft | 492 kts | 154° |
| 2026-04-30 13:29 | 46.77120 | 10.89563 | 31222 ft | 481 kts | 139° |
| 2026-04-30 13:29 | 46.72314 | 10.96128 | 31216 ft | 469 kts | 127° |
| 2026-04-30 13:31 | 46.61844 | 11.13505 | 31440 ft | 478 kts | 127° |
| 2026-04-30 13:31 | 46.55156 | 11.24394 | 32007 ft | 483 kts | 127° |
| 2026-04-30 13:32 | 46.50663 | 11.31663 | 32175 ft | 485 kts | 127° |
| 2026-04-30 13:33 | 46.41645 | 11.46213 | 32178 ft | 485 kts | 127° |
| 2026-04-30 13:34 | 46.34866 | 11.57100 | 32211 ft | 486 kts | 128° |
| 2026-04-30 13:35 | 46.25767 | 11.71651 | 32225 ft | 489 kts | 128° |
| 2026-04-30 13:36 | 46.16622 | 11.86192 | 32245 ft | 489 kts | 128° |
| 2026-04-30 13:36 | 46.09756 | 11.97059 | 32255 ft | 488 kts | 128° |
| 2026-04-30 13:37 | 46.02870 | 12.07917 | 32271 ft | 491 kts | 129° |
| 2026-04-30 13:38 | 45.95956 | 12.18775 | 32283 ft | 490 kts | 129° |
| 2026-04-30 13:39 | 45.86789 | 12.33285 | 32300 ft | 493 kts | 128° |
| 2026-04-30 13:40 | 45.80094 | 12.44535 | 32284 ft | 495 kts | 127° |
| 2026-04-30 13:40 | 45.75609 | 12.52026 | 32280 ft | 495 kts | 128° |
| 2026-04-30 13:41 | 45.71117 | 12.59465 | 32282 ft | 494 kts | 128° |
| 2026-04-30 13:41 | 45.66609 | 12.66898 | 32300 ft | 495 kts | 128° |
| 2026-04-30 13:42 | 45.62072 | 12.74362 | 32186 ft | 500 kts | 128° |
| 2026-04-30 13:42 | 45.59784 | 12.78119 | 31911 ft | 501 kts | 129° |
| 2026-04-30 13:42 | 45.55226 | 12.85585 | 31414 ft | 498 kts | 129° |
| 2026-04-30 13:43 | 45.52946 | 12.89314 | 31163 ft | 498 kts | 129° |
| 2026-04-30 13:43 | 45.50669 | 12.93033 | 30919 ft | 498 kts | 129° |
| 2026-04-30 13:43 | 45.48392 | 12.96747 | 30707 ft | 498 kts | 129° |
| 2026-04-30 13:43 | 45.46135 | 13.00424 | 30468 ft | 499 kts | 129° |
| 2026-04-30 13:44 | 45.43823 | 13.04186 | 30197 ft | 499 kts | 129° |
| 2026-04-30 13:44 | 45.41569 | 13.07847 | 29895 ft | 499 kts | 129° |
| 2026-04-30 13:44 | 45.39274 | 13.11572 | 29615 ft | 501 kts | 130° |
| 2026-04-30 13:44 | 45.36968 | 13.15310 | 29334 ft | 503 kts | 130° |
| 2026-04-30 13:45 | 45.32341 | 13.22795 | 28779 ft | 505 kts | 130° |
| 2026-04-30 13:45 | 45.29999 | 13.26507 | 28528 ft | 505 kts | 131° |
| 2026-04-30 13:45 | 45.27569 | 13.30127 | 28256 ft | 506 kts | 133° |
| 2026-04-30 13:46 | 45.25098 | 13.33679 | 27981 ft | 506 kts | 134° |
| 2026-04-30 13:46 | 45.22603 | 13.37217 | 27718 ft | 506 kts | 134° |
| 2026-04-30 13:46 | 45.20108 | 13.40748 | 27453 ft | 506 kts | 134° |
| 2026-04-30 13:46 | 45.17619 | 13.44283 | 27191 ft | 506 kts | 134° |
| 2026-04-30 13:47 | 45.15133 | 13.47828 | 26914 ft | 508 kts | 134° |
| 2026-04-30 13:47 | 45.12643 | 13.51392 | 26658 ft | 509 kts | 134° |
| 2026-04-30 13:47 | 45.10150 | 13.54963 | 26424 ft | 510 kts | 134° |
| 2026-04-30 13:47 | 45.07649 | 13.58548 | 26171 ft | 510 kts | 134° |
| 2026-04-30 13:48 | 45.05154 | 13.62120 | 25915 ft | 510 kts | 134° |
| 2026-04-30 13:48 | 45.02694 | 13.65636 | 25668 ft | 508 kts | 134° |
| 2026-04-30 13:48 | 45.00185 | 13.69217 | 25418 ft | 505 kts | 134° |
| 2026-04-30 13:48 | 44.97750 | 13.72686 | 25184 ft | 503 kts | 134° |
| 2026-04-30 13:49 | 44.95286 | 13.76192 | 24942 ft | 502 kts | 134° |
| 2026-04-30 13:49 | 44.92830 | 13.79683 | 24693 ft | 501 kts | 134° |
| 2026-04-30 13:49 | 44.90378 | 13.83163 | 24459 ft | 500 kts | 134° |
| 2026-04-30 13:49 | 44.87932 | 13.86629 | 24245 ft | 495 kts | 134° |
| 2026-04-30 13:50 | 44.85500 | 13.90071 | 24005 ft | 493 kts | 134° |
| 2026-04-30 13:50 | 44.80664 | 13.96903 | 23479 ft | 491 kts | 134° |
| 2026-04-30 13:50 | 44.78247 | 14.00311 | 23197 ft | 488 kts | 134° |
| 2026-04-30 13:51 | 44.75861 | 14.03672 | 22916 ft | 486 kts | 134° |
| 2026-04-30 13:51 | 44.73473 | 14.07032 | 22621 ft | 484 kts | 134° |
| 2026-04-30 13:51 | 44.71089 | 14.10381 | 22364 ft | 483 kts | 134° |
| 2026-04-30 13:51 | 44.68719 | 14.13706 | 22109 ft | 481 kts | 134° |
| 2026-04-30 13:52 | 44.66381 | 14.16983 | 21848 ft | 480 kts | 134° |
| 2026-04-30 13:52 | 44.64015 | 14.20295 | 21583 ft | 478 kts | 134° |
| 2026-04-30 13:52 | 44.61654 | 14.23596 | 21323 ft | 477 kts | 134° |
| 2026-04-30 13:52 | 44.59308 | 14.26872 | 21065 ft | 475 kts | 134° |
| 2026-04-30 13:53 | 44.56970 | 14.30133 | 20806 ft | 474 kts | 134° |
| 2026-04-30 13:53 | 44.54635 | 14.33386 | 20551 ft | 472 kts | 134° |
| 2026-04-30 13:53 | 44.52313 | 14.36617 | 20299 ft | 469 kts | 134° |
| 2026-04-30 13:53 | 44.50001 | 14.39829 | 20050 ft | 467 kts | 134° |
| 2026-04-30 13:54 | 44.47693 | 14.43033 | 19821 ft | 465 kts | 134° |
| 2026-04-30 13:54 | 44.45400 | 14.46212 | 19573 ft | 464 kts | 134° |
| 2026-04-30 13:54 | 44.43103 | 14.49394 | 19330 ft | 463 kts | 134° |
| 2026-04-30 13:54 | 44.40816 | 14.52557 | 19088 ft | 462 kts | 134° |
| 2026-04-30 13:55 | 44.38532 | 14.55713 | 18857 ft | 461 kts | 134° |
| 2026-04-30 13:55 | 44.36253 | 14.58858 | 18611 ft | 459 kts | 134° |
| 2026-04-30 13:55 | 44.33990 | 14.61976 | 18349 ft | 456 kts | 134° |
| 2026-04-30 13:55 | 44.31734 | 14.65082 | 18085 ft | 454 kts | 134° |
| 2026-04-30 13:56 | 44.29512 | 14.68139 | 17810 ft | 453 kts | 134° |
| 2026-04-30 13:56 | 44.27272 | 14.71216 | 17540 ft | 451 kts | 134° |
| 2026-04-30 13:56 | 44.25041 | 14.74277 | 17263 ft | 448 kts | 134° |
| 2026-04-30 13:56 | 44.22830 | 14.77307 | 16999 ft | 446 kts | 134° |
| 2026-04-30 13:57 | 44.20591 | 14.80373 | 16740 ft | 444 kts | 134° |
| 2026-04-30 13:57 | 44.18388 | 14.83386 | 16480 ft | 443 kts | 134° |
| 2026-04-30 13:57 | 44.16219 | 14.86349 | 16230 ft | 442 kts | 134° |
| 2026-04-30 13:57 | 44.14029 | 14.89338 | 15982 ft | 440 kts | 134° |
| 2026-04-30 13:58 | 44.11851 | 14.92308 | 15721 ft | 436 kts | 134° |
| 2026-04-30 13:58 | 44.07531 | 14.98187 | 15294 ft | 434 kts | 134° |
| 2026-04-30 13:58 | 44.05368 | 15.01127 | 15242 ft | 434 kts | 134° |
| 2026-04-30 13:59 | 44.03939 | 15.03068 | 15231 ft | 433 kts | 134° |
| 2026-04-30 13:59 | 44.01919 | 15.05808 | 15227 ft | 433 kts | 134° |
| 2026-04-30 13:59 | 43.99759 | 15.08737 | 15227 ft | 433 kts | 134° |
| 2026-04-30 13:59 | 43.97603 | 15.11656 | 15240 ft | 433 kts | 134° |
| 2026-04-30 14:00 | 43.95442 | 15.14579 | 15168 ft | 434 kts | 134° |
| 2026-04-30 14:00 | 43.91064 | 15.20260 | 14533 ft | 430 kts | 137° |
| 2026-04-30 14:00 | 43.88799 | 15.22955 | 14236 ft | 428 kts | 138° |
| 2026-04-30 14:01 | 43.86539 | 15.25605 | 13975 ft | 424 kts | 138° |
| 2026-04-30 14:01 | 43.84293 | 15.28240 | 13698 ft | 421 kts | 138° |
| 2026-04-30 14:01 | 43.82067 | 15.30868 | 13456 ft | 421 kts | 137° |
| 2026-04-30 14:01 | 43.79842 | 15.33510 | 13188 ft | 420 kts | 137° |
| 2026-04-30 14:02 | 43.77633 | 15.36141 | 12910 ft | 420 kts | 137° |
| 2026-04-30 14:02 | 43.75421 | 15.38778 | 12639 ft | 419 kts | 137° |
| 2026-04-30 14:02 | 43.73223 | 15.41397 | 12383 ft | 416 kts | 137° |
| 2026-04-30 14:02 | 43.71036 | 15.44001 | 12120 ft | 415 kts | 137° |
| 2026-04-30 14:03 | 43.68848 | 15.46603 | 11865 ft | 414 kts | 137° |
| 2026-04-30 14:03 | 43.66671 | 15.49190 | 11610 ft | 411 kts | 137° |
| 2026-04-30 14:03 | 43.64508 | 15.51757 | 11349 ft | 409 kts | 137° |
| 2026-04-30 14:03 | 43.62361 | 15.54301 | 11092 ft | 408 kts | 137° |
| 2026-04-30 14:04 | 43.60205 | 15.56853 | 10855 ft | 405 kts | 137° |
| 2026-04-30 14:04 | 43.58070 | 15.59375 | 10616 ft | 403 kts | 137° |
| 2026-04-30 14:04 | 43.55944 | 15.61886 | 10369 ft | 401 kts | 137° |
| 2026-04-30 14:04 | 43.53831 | 15.64379 | 10136 ft | 401 kts | 136° |
| 2026-04-30 14:05 | 43.51711 | 15.66881 | 9866 ft | 399 kts | 137° |
| 2026-04-30 14:05 | 43.49607 | 15.69360 | 9598 ft | 396 kts | 137° |
| 2026-04-30 14:05 | 43.47524 | 15.71812 | 9334 ft | 394 kts | 137° |
| 2026-04-30 14:05 | 43.45445 | 15.74256 | 9074 ft | 392 kts | 137° |
| 2026-04-30 14:06 | 43.43240 | 15.76358 | 8781 ft | 393 kts | 153° |
| 2026-04-30 14:06 | 43.38061 | 15.76822 | 8265 ft | 363 kts | 195° |
| 2026-04-30 14:07 | 43.33904 | 15.73574 | 7755 ft | 328 kts | 220° |
| 2026-04-30 14:07 | 43.31997 | 15.72131 | 7467 ft | 315 kts | 192° |
| 2026-04-30 14:07 | 43.29893 | 15.72248 | 7222 ft | 298 kts | 158° |
| 2026-04-30 14:08 | 43.26854 | 15.75627 | 6753 ft | 276 kts | 132° |
| 2026-04-30 14:08 | 43.25527 | 15.77504 | 6502 ft | 271 kts | 127° |
| 2026-04-30 14:08 | 43.24691 | 15.82222 | 5962 ft | 257 kts | 74° |
| 2026-04-30 14:09 | 43.25446 | 15.84399 | 5717 ft | 253 kts | 52° |
| 2026-04-30 14:09 | 43.26621 | 15.86175 | 5477 ft | 252 kts | 45° |
| 2026-04-30 14:09 | 43.29107 | 15.89562 | 5047 ft | 253 kts | 45° |
| 2026-04-30 14:10 | 43.30355 | 15.91285 | 4998 ft | 255 kts | 46° |
| 2026-04-30 14:10 | 43.31600 | 15.93020 | 4990 ft | 253 kts | 46° |
| 2026-04-30 14:10 | 43.32814 | 15.94758 | 4986 ft | 252 kts | 47° |
| 2026-04-30 14:10 | 43.34024 | 15.96504 | 4990 ft | 252 kts | 47° |
| 2026-04-30 14:11 | 43.35239 | 15.98258 | 4995 ft | 255 kts | 47° |
| 2026-04-30 14:11 | 43.36469 | 16.00034 | 5005 ft | 256 kts | 46° |
| 2026-04-30 14:11 | 43.37682 | 16.01786 | 4876 ft | 256 kts | 46° |
| 2026-04-30 14:11 | 43.38880 | 16.03516 | 4545 ft | 256 kts | 46° |
| 2026-04-30 14:12 | 43.40088 | 16.05262 | 4217 ft | 250 kts | 46° |
| 2026-04-30 14:12 | 43.41240 | 16.07015 | 3886 ft | 242 kts | 51° |
| 2026-04-30 14:12 | 43.42232 | 16.08787 | 3588 ft | 226 kts | 53° |
| 2026-04-30 14:12 | 43.43135 | 16.10440 | 3304 ft | 207 kts | 52° |
| 2026-04-30 14:13 | 43.43967 | 16.11942 | 3046 ft | 189 kts | 53° |
| 2026-04-30 14:13 | 43.44727 | 16.13308 | 2817 ft | 170 kts | 53° |
| 2026-04-30 14:13 | 43.45395 | 16.14515 | 2627 ft | 145 kts | 51° |
| 2026-04-30 14:13 | 43.45952 | 16.15518 | 2426 ft | 118 kts | 51° |
| 2026-04-30 14:14 | 43.46453 | 16.16419 | 2276 ft | 115 kts | 51° |
| 2026-04-30 14:14 | 43.46918 | 16.17257 | 2128 ft | 111 kts | 51° |
| 2026-04-30 14:14 | 43.47392 | 16.18109 | 1987 ft | 110 kts | 51° |
| 2026-04-30 14:14 | 43.47867 | 16.18964 | 1843 ft | 116 kts | 52° |
| 2026-04-30 14:15 | 43.48357 | 16.19846 | 1680 ft | 112 kts | 52° |
| 2026-04-30 14:15 | 43.48837 | 16.20711 | 1533 ft | 114 kts | 51° |
| 2026-04-30 14:15 | 43.49287 | 16.21527 | 1372 ft | 99 kts | 51° |
| 2026-04-30 14:15 | 43.49728 | 16.22335 | 1318 ft | 112 kts | 50° |
| 2026-04-30 14:16 | 43.50233 | 16.23211 | 1295 ft | 123 kts | 51° |
| 2026-04-30 14:16 | 43.50783 | 16.24205 | 1169 ft | 136 kts | 52° |
| 2026-04-30 14:16 | 43.51330 | 16.25212 | 1013 ft | 126 kts | 51° |
| 2026-04-30 14:16 | 43.51853 | 16.26140 | 763 ft | 117 kts | 50° |
| 2026-04-30 14:17 | 43.52326 | 16.26985 | 489 ft | 108 kts | 52° |
| 2026-04-30 14:17 | 43.52770 | 16.27787 | 310 ft | 106 kts | 51° |
| 2026-04-30 14:17 | 43.53226 | 16.28605 | 142 ft | 106 kts | 51° |
| 2026-04-30 14:17 | 43.53630 | 16.29333 | 87 ft | 82 kts | 50° |
| 2026-04-30 14:18 | 43.53908 | 16.29822 | 73 ft | 38 kts | 53° |
| 2026-04-30 14:18 | 43.54006 | 16.30002 | 65 ft | 15 kts | 50° |
| 2026-04-30 14:18 | 43.54030 | 16.30108 | 66 ft | 6 kts | 171° |
| 2026-04-30 14:19 | 43.53963 | 16.30080 | 72 ft | 2 kts | 195° |
| 2026-04-30 14:19 | 43.53959 | 16.30078 | 72 ft | 0 kts | 195° |
| 2026-04-30 14:19 | 43.53952 | 16.30076 | 73 ft | 4 kts | 195° |
| 2026-04-30 14:20 | 43.53891 | 16.30033 | 66 ft | 14 kts | 225° |
| 2026-04-30 14:20 | 43.53821 | 16.29910 | 74 ft | 18 kts | 232° |
| 2026-04-30 14:20 | 43.53677 | 16.29645 | 85 ft | 16 kts | 232° |
| 2026-04-30 14:21 | 43.53605 | 16.29607 | 83 ft | 12 kts | 144° |
| 2026-04-30 14:21 | 43.53553 | 16.29658 | 82 ft | 2 kts | 141° |
| 2026-04-30 14:21 | 43.53546 | 16.29718 | 81 ft | 5 kts | 91° |
| 2026-04-30 14:22 | 43.53543 | 16.29741 | 81 ft | 0 kts | 102° |
| 2026-04-30 14:22 | 43.53542 | 16.29742 | 81 ft | 0 kts | 102° |
| 2026-04-30 14:33 | 43.53543 | 16.29740 | 82 ft | 0 kts | 102° |
| 2026-04-30 14:43 | 43.53504 | 16.29782 | 85 ft | 0 kts | 101° |
| 2026-04-30 14:53 | 43.53494 | 16.29649 | 87 ft | 0 kts | 184° |